sensor_id;sensor_type;location;lat;lon;timestamp;P1;durP1;ratioP1;P2;durP2;ratioP2
53299;SDS011;39187;48.476;8.310;2023-05-10T00:01:04;0.60;;;0.60;;
53299;SDS011;39187;48.476;8.310;2023-05-10T00:03:30;0.50;;;0.50;;
53299;SDS011;39187;48.476;8.310;2023-05-10T00:05:55;0.60;;;0.60;;
53299;SDS011;39187;48.476;8.310;2023-05-10T00:08:21;0.50;;;0.50;;
53299;SDS011;39187;48.476;8.310;2023-05-10T00:10:47;0.50;;;0.50;;
53299;SDS011;39187;48.476;8.310;2023-05-10T00:13:12;0.70;;;0.70;;
53299;SDS011;39187;48.476;8.310;2023-05-10T00:15:38;0.77;;;0.77;;
53299;SDS011;39187;48.476;8.310;2023-05-10T00:18:03;0.67;;;0.67;;
53299;SDS011;39187;48.476;8.310;2023-05-10T00:20:29;1.07;;;1.07;;
53299;SDS011;39187;48.476;8.310;2023-05-10T00:22:54;1.10;;;1.10;;
53299;SDS011;39187;48.476;8.310;2023-05-10T00:25:20;1.20;;;1.10;;
53299;SDS011;39187;48.476;8.310;2023-05-10T00:27:46;0.90;;;0.90;;
53299;SDS011;39187;48.476;8.310;2023-05-10T00:30:12;1.10;;;1.10;;
53299;SDS011;39187;48.476;8.310;2023-05-10T00:32:38;1.30;;;1.20;;
53299;SDS011;39187;48.476;8.310;2023-05-10T00:35:03;4.83;;;1.23;;
53299;SDS011;39187;48.476;8.310;2023-05-10T00:37:29;1.10;;;1.10;;
53299;SDS011;39187;48.476;8.310;2023-05-10T00:39:55;1.00;;;1.00;;
53299;SDS011;39187;48.476;8.310;2023-05-10T00:42:20;3.70;;;1.07;;
53299;SDS011;39187;48.476;8.310;2023-05-10T00:44:47;1.67;;;1.27;;
53299;SDS011;39187;48.476;8.310;2023-05-10T00:47:13;1.57;;;1.47;;
53299;SDS011;39187;48.476;8.310;2023-05-10T00:49:39;0.83;;;0.83;;
53299;SDS011;39187;48.476;8.310;2023-05-10T00:52:05;1.30;;;1.20;;
53299;SDS011;39187;48.476;8.310;2023-05-10T00:54:31;1.23;;;1.13;;
53299;SDS011;39187;48.476;8.310;2023-05-10T00:56:57;1.33;;;1.13;;
53299;SDS011;39187;48.476;8.310;2023-05-10T00:59:23;1.37;;;1.37;;
53299;SDS011;39187;48.476;8.310;2023-05-10T01:01:49;1.60;;;1.60;;
53299;SDS011;39187;48.476;8.310;2023-05-10T01:04:16;1.70;;;1.70;;
53299;SDS011;39187;48.476;8.310;2023-05-10T01:06:42;2.03;;;1.23;;
53299;SDS011;39187;48.476;8.310;2023-05-10T01:09:08;7.03;;;1.70;;
53299;SDS011;39187;48.476;8.310;2023-05-10T01:11:34;1.40;;;1.30;;
53299;SDS011;39187;48.476;8.310;2023-05-10T01:14:01;1.17;;;1.07;;
53299;SDS011;39187;48.476;8.310;2023-05-10T01:16:27;1.17;;;1.17;;
53299;SDS011;39187;48.476;8.310;2023-05-10T01:18:56;1.47;;;1.40;;
53299;SDS011;39187;48.476;8.310;2023-05-10T01:21:23;1.07;;;1.03;;
53299;SDS011;39187;48.476;8.310;2023-05-10T01:24:07;1.40;;;0.97;;
53299;SDS011;39187;48.476;8.310;2023-05-10T01:26:53;1.77;;;1.07;;
53299;SDS011;39187;48.476;8.310;2023-05-10T01:32:21;1.10;;;1.10;;
53299;SDS011;39187;48.476;8.310;2023-05-10T01:35:00;1.60;;;1.20;;
53299;SDS011;39187;48.476;8.310;2023-05-10T01:37:41;0.87;;;0.87;;
53299;SDS011;39187;48.476;8.310;2023-05-10T01:40:16;1.00;;;0.90;;
53299;SDS011;39187;48.476;8.310;2023-05-10T01:42:47;0.97;;;0.97;;
53299;SDS011;39187;48.476;8.310;2023-05-10T01:45:39;1.03;;;1.03;;
53299;SDS011;39187;48.476;8.310;2023-05-10T01:48:21;0.90;;;0.90;;
53299;SDS011;39187;48.476;8.310;2023-05-10T01:50:48;1.83;;;1.73;;
53299;SDS011;39187;48.476;8.310;2023-05-10T01:53:17;1.10;;;1.10;;
53299;SDS011;39187;48.476;8.310;2023-05-10T01:55:52;1.33;;;1.27;;
53299;SDS011;39187;48.476;8.310;2023-05-10T01:58:21;1.40;;;1.30;;
53299;SDS011;39187;48.476;8.310;2023-05-10T02:00:50;1.43;;;1.43;;
53299;SDS011;39187;48.476;8.310;2023-05-10T02:03:17;1.80;;;1.10;;
53299;SDS011;39187;48.476;8.310;2023-05-10T02:05:46;1.00;;;1.00;;
53299;SDS011;39187;48.476;8.310;2023-05-10T02:08:14;1.50;;;1.50;;
53299;SDS011;39187;48.476;8.310;2023-05-10T02:10:42;1.37;;;1.27;;
53299;SDS011;39187;48.476;8.310;2023-05-10T02:13:10;1.40;;;1.30;;
53299;SDS011;39187;48.476;8.310;2023-05-10T02:15:37;1.30;;;1.30;;
53299;SDS011;39187;48.476;8.310;2023-05-10T02:18:05;1.83;;;1.73;;
53299;SDS011;39187;48.476;8.310;2023-05-10T02:20:32;1.40;;;1.40;;
53299;SDS011;39187;48.476;8.310;2023-05-10T02:22:59;1.43;;;1.43;;
53299;SDS011;39187;48.476;8.310;2023-05-10T02:25:27;1.37;;;1.37;;
53299;SDS011;39187;48.476;8.310;2023-05-10T02:27:55;2.50;;;2.40;;
53299;SDS011;39187;48.476;8.310;2023-05-10T02:30:22;2.57;;;2.47;;
53299;SDS011;39187;48.476;8.310;2023-05-10T02:32:49;2.67;;;2.57;;
53299;SDS011;39187;48.476;8.310;2023-05-10T02:35:15;2.50;;;2.40;;
53299;SDS011;39187;48.476;8.310;2023-05-10T02:37:41;1.53;;;1.50;;
53299;SDS011;39187;48.476;8.310;2023-05-10T02:40:09;2.03;;;1.93;;
53299;SDS011;39187;48.476;8.310;2023-05-10T02:42:37;1.63;;;1.53;;
53299;SDS011;39187;48.476;8.310;2023-05-10T02:45:08;1.30;;;1.30;;
53299;SDS011;39187;48.476;8.310;2023-05-10T02:47:37;1.40;;;1.40;;
53299;SDS011;39187;48.476;8.310;2023-05-10T02:50:03;1.50;;;1.50;;
53299;SDS011;39187;48.476;8.310;2023-05-10T02:52:30;1.40;;;1.40;;
53299;SDS011;39187;48.476;8.310;2023-05-10T02:55:09;1.70;;;1.60;;
53299;SDS011;39187;48.476;8.310;2023-05-10T02:57:41;3.43;;;1.57;;
53299;SDS011;39187;48.476;8.310;2023-05-10T03:00:13;1.80;;;1.70;;
53299;SDS011;39187;48.476;8.310;2023-05-10T03:02:39;1.50;;;1.40;;
53299;SDS011;39187;48.476;8.310;2023-05-10T03:05:05;3.43;;;1.67;;
53299;SDS011;39187;48.476;8.310;2023-05-10T03:07:31;2.90;;;1.63;;
53299;SDS011;39187;48.476;8.310;2023-05-10T03:09:58;1.57;;;1.57;;
53299;SDS011;39187;48.476;8.310;2023-05-10T03:12:31;2.43;;;2.33;;
53299;SDS011;39187;48.476;8.310;2023-05-10T03:15:17;2.10;;;2.00;;
53299;SDS011;39187;48.476;8.310;2023-05-10T03:17:52;3.23;;;1.80;;
53299;SDS011;39187;48.476;8.310;2023-05-10T03:20:31;2.40;;;2.20;;
53299;SDS011;39187;48.476;8.310;2023-05-10T03:23:07;1.67;;;1.57;;
53299;SDS011;39187;48.476;8.310;2023-05-10T03:25:38;2.33;;;2.23;;
53299;SDS011;39187;48.476;8.310;2023-05-10T03:28:05;2.57;;;2.47;;
53299;SDS011;39187;48.476;8.310;2023-05-10T03:30:31;2.90;;;2.77;;
53299;SDS011;39187;48.476;8.310;2023-05-10T03:32:57;3.13;;;3.03;;
53299;SDS011;39187;48.476;8.310;2023-05-10T03:35:28;2.80;;;2.60;;
53299;SDS011;39187;48.476;8.310;2023-05-10T03:37:54;4.17;;;3.80;;
53299;SDS011;39187;48.476;8.310;2023-05-10T03:40:19;2.90;;;2.70;;
53299;SDS011;39187;48.476;8.310;2023-05-10T03:42:45;3.00;;;2.80;;
53299;SDS011;39187;48.476;8.310;2023-05-10T03:45:10;2.77;;;2.67;;
53299;SDS011;39187;48.476;8.310;2023-05-10T03:47:36;3.40;;;3.20;;
53299;SDS011;39187;48.476;8.310;2023-05-10T03:50:01;2.93;;;2.83;;
53299;SDS011;39187;48.476;8.310;2023-05-10T03:52:27;3.07;;;2.80;;
53299;SDS011;39187;48.476;8.310;2023-05-10T03:54:52;2.63;;;2.53;;
53299;SDS011;39187;48.476;8.310;2023-05-10T03:57:18;2.60;;;2.50;;
53299;SDS011;39187;48.476;8.310;2023-05-10T03:59:43;3.47;;;3.17;;
53299;SDS011;39187;48.476;8.310;2023-05-10T04:02:10;3.33;;;3.03;;
53299;SDS011;39187;48.476;8.310;2023-05-10T04:04:35;2.80;;;2.70;;
53299;SDS011;39187;48.476;8.310;2023-05-10T04:07:01;5.00;;;2.20;;
53299;SDS011;39187;48.476;8.310;2023-05-10T04:09:26;1.60;;;1.40;;
53299;SDS011;39187;48.476;8.310;2023-05-10T04:11:52;1.20;;;1.20;;
53299;SDS011;39187;48.476;8.310;2023-05-10T04:14:17;1.27;;;1.20;;
53299;SDS011;39187;48.476;8.310;2023-05-10T04:16:43;2.10;;;1.23;;
53299;SDS011;39187;48.476;8.310;2023-05-10T04:19:08;1.47;;;1.37;;
53299;SDS011;39187;48.476;8.310;2023-05-10T04:21:34;1.57;;;1.50;;
53299;SDS011;39187;48.476;8.310;2023-05-10T04:23:59;1.37;;;1.33;;
53299;SDS011;39187;48.476;8.310;2023-05-10T04:26:25;1.47;;;1.47;;
53299;SDS011;39187;48.476;8.310;2023-05-10T04:28:50;1.97;;;1.87;;
53299;SDS011;39187;48.476;8.310;2023-05-10T04:31:16;2.00;;;1.77;;
53299;SDS011;39187;48.476;8.310;2023-05-10T04:33:42;2.30;;;2.10;;
53299;SDS011;39187;48.476;8.310;2023-05-10T04:36:07;13.40;;;3.17;;
53299;SDS011;39187;48.476;8.310;2023-05-10T04:38:33;2.20;;;1.30;;
53299;SDS011;39187;48.476;8.310;2023-05-10T04:41:08;1.50;;;1.40;;
53299;SDS011;39187;48.476;8.310;2023-05-10T04:43:34;1.47;;;1.37;;
53299;SDS011;39187;48.476;8.310;2023-05-10T04:46:01;1.57;;;1.47;;
53299;SDS011;39187;48.476;8.310;2023-05-10T04:48:27;1.17;;;1.10;;
53299;SDS011;39187;48.476;8.310;2023-05-10T04:50:58;1.30;;;1.30;;
53299;SDS011;39187;48.476;8.310;2023-05-10T04:53:24;1.37;;;1.27;;
53299;SDS011;39187;48.476;8.310;2023-05-10T04:55:50;1.27;;;1.27;;
53299;SDS011;39187;48.476;8.310;2023-05-10T04:58:15;1.30;;;1.30;;
53299;SDS011;39187;48.476;8.310;2023-05-10T05:00:41;3.47;;;1.30;;
53299;SDS011;39187;48.476;8.310;2023-05-10T05:03:07;1.13;;;1.10;;
53299;SDS011;39187;48.476;8.310;2023-05-10T05:05:33;2.93;;;1.23;;
53299;SDS011;39187;48.476;8.310;2023-05-10T05:07:58;1.33;;;1.27;;
53299;SDS011;39187;48.476;8.310;2023-05-10T05:10:24;1.43;;;1.33;;
53299;SDS011;39187;48.476;8.310;2023-05-10T05:12:49;1.57;;;1.47;;
53299;SDS011;39187;48.476;8.310;2023-05-10T05:15:15;1.33;;;1.33;;
53299;SDS011;39187;48.476;8.310;2023-05-10T05:17:41;1.70;;;1.60;;
53299;SDS011;39187;48.476;8.310;2023-05-10T05:20:08;1.80;;;1.70;;
53299;SDS011;39187;48.476;8.310;2023-05-10T05:22:35;1.33;;;1.33;;
53299;SDS011;39187;48.476;8.310;2023-05-10T05:25:01;1.40;;;1.30;;
53299;SDS011;39187;48.476;8.310;2023-05-10T05:27:28;1.33;;;1.33;;
53299;SDS011;39187;48.476;8.310;2023-05-10T05:29:57;4.20;;;1.77;;
53299;SDS011;39187;48.476;8.310;2023-05-10T05:32:24;1.70;;;1.60;;
53299;SDS011;39187;48.476;8.310;2023-05-10T05:34:50;2.13;;;2.03;;
53299;SDS011;39187;48.476;8.310;2023-05-10T05:37:16;3.03;;;1.87;;
53299;SDS011;39187;48.476;8.310;2023-05-10T05:39:44;1.93;;;1.83;;
53299;SDS011;39187;48.476;8.310;2023-05-10T05:42:10;2.90;;;0.90;;
53299;SDS011;39187;48.476;8.310;2023-05-10T05:44:36;0.80;;;0.70;;
53299;SDS011;39187;48.476;8.310;2023-05-10T05:47:02;0.70;;;0.70;;
53299;SDS011;39187;48.476;8.310;2023-05-10T05:49:28;5.40;;;1.10;;
53299;SDS011;39187;48.476;8.310;2023-05-10T05:51:53;0.83;;;0.83;;
53299;SDS011;39187;48.476;8.310;2023-05-10T05:54:19;1.23;;;0.80;;
53299;SDS011;39187;48.476;8.310;2023-05-10T05:56:44;0.60;;;0.60;;
53299;SDS011;39187;48.476;8.310;2023-05-10T05:59:10;0.87;;;0.70;;
53299;SDS011;39187;48.476;8.310;2023-05-10T06:01:36;0.60;;;0.60;;
53299;SDS011;39187;48.476;8.310;2023-05-10T06:04:02;0.70;;;0.70;;
53299;SDS011;39187;48.476;8.310;2023-05-10T06:06:27;0.80;;;0.80;;
53299;SDS011;39187;48.476;8.310;2023-05-10T06:08:53;1.00;;;0.97;;
53299;SDS011;39187;48.476;8.310;2023-05-10T06:11:19;0.80;;;0.80;;
53299;SDS011;39187;48.476;8.310;2023-05-10T06:13:46;3.03;;;1.00;;
53299;SDS011;39187;48.476;8.310;2023-05-10T06:16:12;0.90;;;0.90;;
53299;SDS011;39187;48.476;8.310;2023-05-10T06:18:38;1.10;;;1.10;;
53299;SDS011;39187;48.476;8.310;2023-05-10T06:21:03;0.67;;;0.67;;
53299;SDS011;39187;48.476;8.310;2023-05-10T06:23:29;0.90;;;0.90;;
53299;SDS011;39187;48.476;8.310;2023-05-10T06:25:54;1.30;;;1.13;;
53299;SDS011;39187;48.476;8.310;2023-05-10T06:28:20;1.20;;;1.10;;
53299;SDS011;39187;48.476;8.310;2023-05-10T06:30:46;0.90;;;0.90;;
53299;SDS011;39187;48.476;8.310;2023-05-10T06:33:11;1.10;;;1.10;;
53299;SDS011;39187;48.476;8.310;2023-05-10T06:35:37;0.80;;;0.80;;
53299;SDS011;39187;48.476;8.310;2023-05-10T06:38:02;4.00;;;0.70;;
53299;SDS011;39187;48.476;8.310;2023-05-10T06:40:27;0.90;;;0.90;;
53299;SDS011;39187;48.476;8.310;2023-05-10T06:42:53;2.20;;;0.83;;
53299;SDS011;39187;48.476;8.310;2023-05-10T06:45:18;0.70;;;0.70;;
53299;SDS011;39187;48.476;8.310;2023-05-10T06:47:44;2.63;;;1.00;;
53299;SDS011;39187;48.476;8.310;2023-05-10T06:50:11;0.87;;;0.87;;
53299;SDS011;39187;48.476;8.310;2023-05-10T06:52:36;0.80;;;0.80;;
53299;SDS011;39187;48.476;8.310;2023-05-10T06:55:03;1.90;;;0.90;;
53299;SDS011;39187;48.476;8.310;2023-05-10T06:57:29;0.73;;;0.73;;
53299;SDS011;39187;48.476;8.310;2023-05-10T06:59:55;0.90;;;0.90;;
53299;SDS011;39187;48.476;8.310;2023-05-10T07:02:23;1.50;;;0.83;;
53299;SDS011;39187;48.476;8.310;2023-05-10T07:04:49;0.83;;;0.83;;
53299;SDS011;39187;48.476;8.310;2023-05-10T07:07:15;0.80;;;0.80;;
53299;SDS011;39187;48.476;8.310;2023-05-10T07:09:40;0.60;;;0.60;;
53299;SDS011;39187;48.476;8.310;2023-05-10T07:12:06;0.60;;;0.60;;
53299;SDS011;39187;48.476;8.310;2023-05-10T07:14:31;7.63;;;0.90;;
53299;SDS011;39187;48.476;8.310;2023-05-10T07:16:57;6.13;;;0.80;;
53299;SDS011;39187;48.476;8.310;2023-05-10T07:19:22;0.70;;;0.70;;
53299;SDS011;39187;48.476;8.310;2023-05-10T07:21:48;1.50;;;1.20;;
53299;SDS011;39187;48.476;8.310;2023-05-10T07:24:15;0.70;;;0.70;;
53299;SDS011;39187;48.476;8.310;2023-05-10T07:26:40;2.97;;;0.83;;
53299;SDS011;39187;48.476;8.310;2023-05-10T07:29:06;0.70;;;0.70;;
53299;SDS011;39187;48.476;8.310;2023-05-10T07:31:31;0.90;;;0.90;;
53299;SDS011;39187;48.476;8.310;2023-05-10T07:33:57;0.60;;;0.60;;
53299;SDS011;39187;48.476;8.310;2023-05-10T07:36:22;4.70;;;0.90;;
53299;SDS011;39187;48.476;8.310;2023-05-10T07:38:48;0.67;;;0.50;;
53299;SDS011;39187;48.476;8.310;2023-05-10T07:41:14;2.23;;;0.50;;
53299;SDS011;39187;48.476;8.310;2023-05-10T07:43:40;1.07;;;0.70;;
53299;SDS011;39187;48.476;8.310;2023-05-10T07:46:05;1.90;;;0.63;;
53299;SDS011;39187;48.476;8.310;2023-05-10T07:48:31;0.50;;;0.50;;
53299;SDS011;39187;48.476;8.310;2023-05-10T07:50:56;0.50;;;0.50;;
53299;SDS011;39187;48.476;8.310;2023-05-10T07:53:22;1.63;;;0.60;;
53299;SDS011;39187;48.476;8.310;2023-05-10T07:55:51;0.80;;;0.60;;
53299;SDS011;39187;48.476;8.310;2023-05-10T07:58:17;0.50;;;0.50;;
53299;SDS011;39187;48.476;8.310;2023-05-10T08:00:43;1.30;;;0.70;;
53299;SDS011;39187;48.476;8.310;2023-05-10T08:03:08;1.37;;;0.70;;
53299;SDS011;39187;48.476;8.310;2023-05-10T08:05:33;0.90;;;0.90;;
53299;SDS011;39187;48.476;8.310;2023-05-10T08:07:59;0.70;;;0.70;;
53299;SDS011;39187;48.476;8.310;2023-05-10T08:10:25;0.73;;;0.70;;
53299;SDS011;39187;48.476;8.310;2023-05-10T08:12:50;0.70;;;0.70;;
53299;SDS011;39187;48.476;8.310;2023-05-10T08:15:16;1.30;;;0.77;;
53299;SDS011;39187;48.476;8.310;2023-05-10T08:17:42;0.70;;;0.70;;
53299;SDS011;39187;48.476;8.310;2023-05-10T08:20:08;0.70;;;0.70;;
53299;SDS011;39187;48.476;8.310;2023-05-10T08:22:34;1.10;;;1.00;;
53299;SDS011;39187;48.476;8.310;2023-05-10T08:25:00;1.53;;;0.80;;
53299;SDS011;39187;48.476;8.310;2023-05-10T08:27:25;0.80;;;0.80;;
53299;SDS011;39187;48.476;8.310;2023-05-10T08:29:51;0.80;;;0.80;;
53299;SDS011;39187;48.476;8.310;2023-05-10T08:32:16;2.73;;;0.80;;
53299;SDS011;39187;48.476;8.310;2023-05-10T08:34:42;1.13;;;1.03;;
53299;SDS011;39187;48.476;8.310;2023-05-10T08:37:08;1.00;;;1.00;;
53299;SDS011;39187;48.476;8.310;2023-05-10T08:39:34;1.00;;;1.00;;
53299;SDS011;39187;48.476;8.310;2023-05-10T08:42:01;0.90;;;0.90;;
53299;SDS011;39187;48.476;8.310;2023-05-10T08:44:29;0.93;;;0.93;;
53299;SDS011;39187;48.476;8.310;2023-05-10T08:46:57;1.30;;;0.87;;
53299;SDS011;39187;48.476;8.310;2023-05-10T08:49:28;2.33;;;1.03;;
53299;SDS011;39187;48.476;8.310;2023-05-10T08:51:57;1.20;;;1.10;;
53299;SDS011;39187;48.476;8.310;2023-05-10T08:54:24;1.33;;;1.23;;
53299;SDS011;39187;48.476;8.310;2023-05-10T08:56:50;1.17;;;1.17;;
53299;SDS011;39187;48.476;8.310;2023-05-10T08:59:16;1.70;;;1.50;;
53299;SDS011;39187;48.476;8.310;2023-05-10T09:01:43;1.80;;;1.70;;
53299;SDS011;39187;48.476;8.310;2023-05-10T09:04:10;2.70;;;1.13;;
53299;SDS011;39187;48.476;8.310;2023-05-10T09:06:37;1.40;;;1.40;;
53299;SDS011;39187;48.476;8.310;2023-05-10T09:09:03;1.50;;;1.40;;
53299;SDS011;39187;48.476;8.310;2023-05-10T09:11:28;2.03;;;1.60;;
53299;SDS011;39187;48.476;8.310;2023-05-10T09:13:55;5.43;;;1.50;;
53299;SDS011;39187;48.476;8.310;2023-05-10T09:16:21;1.17;;;1.07;;
53299;SDS011;39187;48.476;8.310;2023-05-10T09:18:48;1.53;;;1.40;;
53299;SDS011;39187;48.476;8.310;2023-05-10T09:21:14;1.13;;;1.13;;
53299;SDS011;39187;48.476;8.310;2023-05-10T09:23:44;1.53;;;1.43;;
53299;SDS011;39187;48.476;8.310;2023-05-10T09:26:10;1.40;;;1.40;;
53299;SDS011;39187;48.476;8.310;2023-05-10T09:28:52;4.13;;;1.70;;
53299;SDS011;39187;48.476;8.310;2023-05-10T09:31:24;2.10;;;0.90;;
53299;SDS011;39187;48.476;8.310;2023-05-10T09:34:07;1.67;;;0.80;;
53299;SDS011;39187;48.476;8.310;2023-05-10T09:36:33;1.77;;;0.90;;
53299;SDS011;39187;48.476;8.310;2023-05-10T09:38:58;0.87;;;0.87;;
53299;SDS011;39187;48.476;8.310;2023-05-10T09:41:25;1.13;;;0.90;;
53299;SDS011;39187;48.476;8.310;2023-05-10T09:43:55;1.00;;;0.90;;
53299;SDS011;39187;48.476;8.310;2023-05-10T09:46:21;3.03;;;1.03;;
53299;SDS011;39187;48.476;8.310;2023-05-10T09:48:47;1.97;;;0.63;;
53299;SDS011;39187;48.476;8.310;2023-05-10T09:51:23;0.70;;;0.70;;
53299;SDS011;39187;48.476;8.310;2023-05-10T09:56:38;0.77;;;0.70;;
53299;SDS011;39187;48.476;8.310;2023-05-10T09:59:06;0.70;;;0.70;;
53299;SDS011;39187;48.476;8.310;2023-05-10T10:01:36;1.00;;;0.80;;
53299;SDS011;39187;48.476;8.310;2023-05-10T10:04:03;1.47;;;0.90;;
53299;SDS011;39187;48.476;8.310;2023-05-10T10:06:34;2.20;;;1.10;;
53299;SDS011;39187;48.476;8.310;2023-05-10T10:09:00;2.20;;;1.10;;
53299;SDS011;39187;48.476;8.310;2023-05-10T10:11:26;1.20;;;1.10;;
53299;SDS011;39187;48.476;8.310;2023-05-10T10:13:52;1.33;;;1.23;;
53299;SDS011;39187;48.476;8.310;2023-05-10T10:16:18;2.00;;;1.33;;
53299;SDS011;39187;48.476;8.310;2023-05-10T10:18:45;5.83;;;1.33;;
53299;SDS011;39187;48.476;8.310;2023-05-10T10:21:13;0.93;;;0.83;;
53299;SDS011;39187;48.476;8.310;2023-05-10T10:23:40;1.10;;;1.10;;
53299;SDS011;39187;48.476;8.310;2023-05-10T10:26:05;1.63;;;1.20;;
53299;SDS011;39187;48.476;8.310;2023-05-10T10:28:38;1.03;;;1.00;;
53299;SDS011;39187;48.476;8.310;2023-05-10T10:31:13;2.00;;;1.10;;
53299;SDS011;39187;48.476;8.310;2023-05-10T10:34:01;3.80;;;1.30;;
53299;SDS011;39187;48.476;8.310;2023-05-10T10:36:30;2.80;;;1.30;;
53299;SDS011;39187;48.476;8.310;2023-05-10T10:38:58;1.30;;;1.20;;
53299;SDS011;39187;48.476;8.310;2023-05-10T10:41:34;1.77;;;1.67;;
53299;SDS011;39187;48.476;8.310;2023-05-10T10:49:48;4.60;;;1.40;;
53299;SDS011;39187;48.476;8.310;2023-05-10T10:54:41;1.67;;;1.50;;
53299;SDS011;39187;48.476;8.310;2023-05-10T10:57:14;1.77;;;1.50;;
53299;SDS011;39187;48.476;8.310;2023-05-10T10:59:43;2.37;;;1.50;;
53299;SDS011;39187;48.476;8.310;2023-05-10T11:02:09;2.10;;;1.60;;
53299;SDS011;39187;48.476;8.310;2023-05-10T11:04:41;1.70;;;1.60;;
53299;SDS011;39187;48.476;8.310;2023-05-10T11:07:17;2.43;;;1.60;;
53299;SDS011;39187;48.476;8.310;2023-05-10T11:09:44;2.10;;;1.70;;
53299;SDS011;39187;48.476;8.310;2023-05-10T11:12:12;2.40;;;1.27;;
53299;SDS011;39187;48.476;8.310;2023-05-10T11:14:37;1.93;;;1.83;;
53299;SDS011;39187;48.476;8.310;2023-05-10T11:17:21;1.30;;;1.23;;
53299;SDS011;39187;48.476;8.310;2023-05-10T11:20:06;2.13;;;2.00;;
53299;SDS011;39187;48.476;8.310;2023-05-10T11:22:52;1.97;;;1.87;;
53299;SDS011;39187;48.476;8.310;2023-05-10T11:25:19;1.43;;;1.33;;
53299;SDS011;39187;48.476;8.310;2023-05-10T11:27:46;3.77;;;1.60;;
53299;SDS011;39187;48.476;8.310;2023-05-10T11:30:13;2.50;;;1.53;;
53299;SDS011;39187;48.476;8.310;2023-05-10T11:32:40;1.60;;;1.50;;
53299;SDS011;39187;48.476;8.310;2023-05-10T11:35:09;1.43;;;1.33;;
53299;SDS011;39187;48.476;8.310;2023-05-10T11:37:36;1.57;;;1.47;;
53299;SDS011;39187;48.476;8.310;2023-05-10T11:40:07;2.40;;;1.60;;
53299;SDS011;39187;48.476;8.310;2023-05-10T11:42:36;1.70;;;1.60;;
53299;SDS011;39187;48.476;8.310;2023-05-10T11:45:02;1.73;;;1.63;;
53299;SDS011;39187;48.476;8.310;2023-05-10T11:47:28;5.07;;;1.57;;
53299;SDS011;39187;48.476;8.310;2023-05-10T11:49:54;1.83;;;1.40;;
53299;SDS011;39187;48.476;8.310;2023-05-10T11:52:19;1.47;;;1.37;;
53299;SDS011;39187;48.476;8.310;2023-05-10T11:54:51;1.20;;;1.20;;
53299;SDS011;39187;48.476;8.310;2023-05-10T11:57:18;2.03;;;1.17;;
53299;SDS011;39187;48.476;8.310;2023-05-10T11:59:46;1.60;;;1.50;;
53299;SDS011;39187;48.476;8.310;2023-05-10T12:02:14;1.07;;;1.07;;
53299;SDS011;39187;48.476;8.310;2023-05-10T12:04:40;1.13;;;1.13;;
53299;SDS011;39187;48.476;8.310;2023-05-10T12:07:06;3.60;;;1.13;;
53299;SDS011;39187;48.476;8.310;2023-05-10T12:09:32;2.10;;;1.10;;
53299;SDS011;39187;48.476;8.310;2023-05-10T12:11:57;2.00;;;1.07;;
53299;SDS011;39187;48.476;8.310;2023-05-10T12:14:23;4.57;;;1.20;;
53299;SDS011;39187;48.476;8.310;2023-05-10T12:16:49;0.97;;;0.90;;
53299;SDS011;39187;48.476;8.310;2023-05-10T12:19:18;1.17;;;1.07;;
53299;SDS011;39187;48.476;8.310;2023-05-10T12:21:47;2.40;;;0.70;;
53299;SDS011;39187;48.476;8.310;2023-05-10T12:24:13;7.90;;;0.80;;
53299;SDS011;39187;48.476;8.310;2023-05-10T12:26:42;3.07;;;0.70;;
53299;SDS011;39187;48.476;8.310;2023-05-10T12:29:16;1.20;;;1.03;;
53299;SDS011;39187;48.476;8.310;2023-05-10T12:31:54;4.20;;;1.57;;
53299;SDS011;39187;48.476;8.310;2023-05-10T12:37:00;1.63;;;0.70;;
53299;SDS011;39187;48.476;8.310;2023-05-10T12:39:25;0.93;;;0.90;;
53299;SDS011;39187;48.476;8.310;2023-05-10T12:42:02;3.63;;;1.17;;
53299;SDS011;39187;48.476;8.310;2023-05-10T12:44:27;1.27;;;0.90;;
53299;SDS011;39187;48.476;8.310;2023-05-10T12:46:53;1.13;;;0.90;;
53299;SDS011;39187;48.476;8.310;2023-05-10T12:49:18;4.27;;;1.37;;
53299;SDS011;39187;48.476;8.310;2023-05-10T12:51:44;3.63;;;0.97;;
53299;SDS011;39187;48.476;8.310;2023-05-10T12:54:10;1.33;;;0.80;;
53299;SDS011;39187;48.476;8.310;2023-05-10T12:56:35;1.90;;;1.10;;
53299;SDS011;39187;48.476;8.310;2023-05-10T12:59:02;2.53;;;0.93;;
53299;SDS011;39187;48.476;8.310;2023-05-10T13:01:27;1.00;;;0.90;;
53299;SDS011;39187;48.476;8.310;2023-05-10T13:03:53;0.80;;;0.80;;
53299;SDS011;39187;48.476;8.310;2023-05-10T13:06:18;1.73;;;0.87;;
53299;SDS011;39187;48.476;8.310;2023-05-10T13:08:44;1.10;;;0.97;;
53299;SDS011;39187;48.476;8.310;2023-05-10T13:11:10;0.97;;;0.80;;
53299;SDS011;39187;48.476;8.310;2023-05-10T13:13:35;1.00;;;1.00;;
53299;SDS011;39187;48.476;8.310;2023-05-10T13:16:01;4.23;;;0.87;;
53299;SDS011;39187;48.476;8.310;2023-05-10T13:18:26;1.20;;;1.07;;
53299;SDS011;39187;48.476;8.310;2023-05-10T13:20:52;1.13;;;0.90;;
53299;SDS011;39187;48.476;8.310;2023-05-10T13:23:19;2.13;;;1.30;;
53299;SDS011;39187;48.476;8.310;2023-05-10T13:25:44;2.20;;;1.00;;
53299;SDS011;39187;48.476;8.310;2023-05-10T13:28:10;1.73;;;1.20;;
53299;SDS011;39187;48.476;8.310;2023-05-10T13:30:35;0.80;;;0.77;;
53299;SDS011;39187;48.476;8.310;2023-05-10T13:33:01;1.27;;;0.73;;
53299;SDS011;39187;48.476;8.310;2023-05-10T13:35:27;0.70;;;0.70;;
53299;SDS011;39187;48.476;8.310;2023-05-10T13:37:52;0.90;;;0.90;;
53299;SDS011;39187;48.476;8.310;2023-05-10T13:40:18;2.20;;;0.80;;
53299;SDS011;39187;48.476;8.310;2023-05-10T13:42:44;1.03;;;0.70;;
53299;SDS011;39187;48.476;8.310;2023-05-10T13:45:10;0.77;;;0.77;;
53299;SDS011;39187;48.476;8.310;2023-05-10T13:47:38;0.70;;;0.67;;
53299;SDS011;39187;48.476;8.310;2023-05-10T13:50:03;0.93;;;0.93;;
53299;SDS011;39187;48.476;8.310;2023-05-10T13:52:29;1.73;;;0.80;;
53299;SDS011;39187;48.476;8.310;2023-05-10T13:54:55;2.40;;;0.80;;
53299;SDS011;39187;48.476;8.310;2023-05-10T13:57:21;0.90;;;0.90;;
53299;SDS011;39187;48.476;8.310;2023-05-10T13:59:48;1.97;;;0.80;;
53299;SDS011;39187;48.476;8.310;2023-05-10T14:02:13;3.30;;;0.77;;
53299;SDS011;39187;48.476;8.310;2023-05-10T14:04:39;1.00;;;0.77;;
53299;SDS011;39187;48.476;8.310;2023-05-10T14:07:05;0.70;;;0.70;;
53299;SDS011;39187;48.476;8.310;2023-05-10T14:09:30;1.33;;;0.70;;
53299;SDS011;39187;48.476;8.310;2023-05-10T14:11:56;3.90;;;0.83;;
53299;SDS011;39187;48.476;8.310;2023-05-10T14:14:22;2.90;;;0.87;;
53299;SDS011;39187;48.476;8.310;2023-05-10T14:16:48;1.00;;;0.70;;
53299;SDS011;39187;48.476;8.310;2023-05-10T14:19:13;1.87;;;0.80;;
53299;SDS011;39187;48.476;8.310;2023-05-10T14:21:39;0.83;;;0.83;;
53299;SDS011;39187;48.476;8.310;2023-05-10T14:24:05;6.30;;;1.10;;
53299;SDS011;39187;48.476;8.310;2023-05-10T14:26:32;1.90;;;0.60;;
53299;SDS011;39187;48.476;8.310;2023-05-10T14:28:58;2.00;;;0.90;;
53299;SDS011;39187;48.476;8.310;2023-05-10T14:31:24;0.83;;;0.80;;
53299;SDS011;39187;48.476;8.310;2023-05-10T14:33:50;2.30;;;2.20;;
53299;SDS011;39187;48.476;8.310;2023-05-10T14:36:17;1.00;;;0.80;;
53299;SDS011;39187;48.476;8.310;2023-05-10T14:38:43;1.37;;;0.60;;
53299;SDS011;39187;48.476;8.310;2023-05-10T14:41:08;3.07;;;1.33;;
53299;SDS011;39187;48.476;8.310;2023-05-10T14:43:34;1.80;;;0.60;;
53299;SDS011;39187;48.476;8.310;2023-05-10T14:46:00;1.07;;;0.70;;
53299;SDS011;39187;48.476;8.310;2023-05-10T14:48:25;1.87;;;0.80;;
53299;SDS011;39187;48.476;8.310;2023-05-10T14:50:51;2.00;;;0.70;;
53299;SDS011;39187;48.476;8.310;2023-05-10T14:53:17;0.70;;;0.70;;
53299;SDS011;39187;48.476;8.310;2023-05-10T14:55:43;2.30;;;0.77;;
53299;SDS011;39187;48.476;8.310;2023-05-10T14:58:09;2.00;;;0.60;;
53299;SDS011;39187;48.476;8.310;2023-05-10T15:00:34;2.53;;;0.90;;
53299;SDS011;39187;48.476;8.310;2023-05-10T15:02:59;1.03;;;0.60;;
53299;SDS011;39187;48.476;8.310;2023-05-10T15:05:25;0.60;;;0.60;;